Time;durP1;ratioP1;P1;durP2;ratioP2;P2;SDS_P1;SDS_P2;PMS_P1;PMS_P2;Temp;Humidity;BMP_temperature;BMP_pressure;BME280_temperature;BME280_humidity;BME280_pressure;Samples;Min_cycle;Max_cycle;Signal;HPM_P1;HPM_P2
2021/07/21 00:01:03;;;;;;;8.40;7.33;;;17.50;1.00;;;;;;4997624;28;20429;-76
2021/07/21 00:03:32;;;;;;;9.13;7.37;;;17.50;1.00;;;;;;4995456;28;20507;-77
2021/07/21 00:05:59;;;;;;;8.67;7.07;;;17.40;1.00;;;;;;4991726;28;20415;-77
2021/07/21 00:08:26;;;;;;;8.53;7.63;;;17.40;1.00;;;;;;4993397;28;20400;-77
2021/07/21 00:13:27;;;;;;;8.13;7.17;;;17.40;1.00;;;;;;4989680;28;20585;-77
2021/07/21 00:13:40;;;;;;;8.57;7.13;;;17.40;1.00;;;;;;4999672;27;20772;-78
2021/07/21 00:16:15;;;;;;;10.73;7.43;;;17.40;1.00;;;;;;4991906;28;20471;-76
2021/07/21 00:18:51;;;;;;;7.60;6.83;;;17.30;1.00;;;;;;4994899;27;20453;-77
2021/07/21 00:21:22;;;;;;;9.37;8.17;;;17.40;1.00;;;;;;4980369;28;20419;-77
2021/07/21 00:23:48;;;;;;;7.80;7.00;;;17.30;1.00;;;;;;4969834;28;20605;-79
2021/07/21 00:26:15;;;;;;;8.70;7.90;;;17.30;1.00;;;;;;4977222;28;20516;-77
2021/07/21 00:28:43;;;;;;;11.03;8.37;;;17.30;1.00;;;;;;4975354;28;20462;-80
2021/07/21 00:31:15;;;;;;;9.50;7.63;;;17.20;1.00;;;;;;4975843;28;20442;-78
2021/07/21 00:33:41;;;;;;;8.70;7.80;;;17.20;1.00;;;;;;4974396;28;21233;-79
2021/07/21 00:36:11;;;;;;;8.00;7.20;;;17.30;1.00;;;;;;4976022;28;20564;-79
2021/07/21 00:38:37;;;;;;;7.63;6.93;;;17.30;1.00;;;;;;4969354;28;20462;-80
2021/07/21 00:41:04;;;;;;;8.33;7.53;;;17.30;1.00;;;;;;4976770;28;20450;-78
2021/07/21 00:43:31;;;;;;;9.20;8.30;;;17.30;1.00;;;;;;4975135;28;20539;-77
2021/07/21 00:45:59;;;;;;;8.73;7.90;;;17.30;1.00;;;;;;4974482;28;20569;-77
2021/07/21 00:48:25;;;;;;;9.30;8.40;;;17.20;1.00;;;;;;4979259;28;20457;-77
2021/07/21 00:50:53;;;;;;;8.47;7.67;;;17.20;1.00;;;;;;4978560;28;21666;-80
2021/07/21 00:53:20;;;;;;;10.50;9.40;;;17.20;1.00;;;;;;4985639;28;20462;-81
2021/07/21 00:55:49;;;;;;;8.43;7.53;;;17.20;1.00;;;;;;4972655;28;20431;-80
2021/07/21 00:58:17;;;;;;;8.53;7.70;;;17.20;1.00;;;;;;5042842;28;20503;-79
2021/07/21 01:00:43;;;;;;;9.70;8.70;;;17.20;1.00;;;;;;4972031;28;21369;-80
2021/07/21 01:03:11;;;;;;;10.13;8.97;;;17.10;1.00;;;;;;4972790;28;20468;-80
2021/07/21 01:05:42;;;;;;;11.23;8.10;;;17.10;1.00;;;;;;4972082;28;20427;-80
2021/07/21 01:08:10;;;;;;;8.13;7.33;;;17.20;1.00;;;;;;5047191;28;20448;-79
2021/07/21 01:10:37;;;;;;;8.80;7.70;;;17.10;1.00;;;;;;4972861;28;20423;-81
2021/07/21 01:13:10;;;;;;;9.60;8.60;;;17.10;1.00;;;;;;4976250;28;20810;-80
2021/07/21 01:15:46;;;;;;;9.43;8.43;;;17.10;1.00;;;;;;5041846;28;21395;-80
2021/07/21 01:18:21;;;;;;;10.77;8.60;;;17.10;1.00;;;;;;4973504;28;20454;-80
2021/07/21 01:21:01;;;;;;;9.20;8.33;;;17.10;1.00;;;;;;4968174;28;20470;-82
2021/07/21 01:23:50;;;;;;;11.10;9.10;;;17.10;1.00;;;;;;4974842;28;20453;-80
2021/07/21 01:26:18;;;;;;;10.10;9.00;;;17.00;1.00;;;;;;4978662;28;21315;-80
2021/07/21 01:28:50;;;;;;;10.97;8.70;;;17.00;1.00;;;;;;4989042;28;20482;-80
2021/07/21 01:31:20;;;;;;;10.30;9.20;;;17.00;1.00;;;;;;4982554;28;20502;-81
2021/07/21 01:33:48;;;;;;;11.60;9.10;;;17.00;1.00;;;;;;4980842;28;20480;-82
2021/07/21 01:36:21;;;;;;;9.40;8.50;;;17.00;1.00;;;;;;4975672;28;20454;-81
2021/07/21 01:38:52;;;;;;;10.40;9.30;;;17.00;1.00;;;;;;4974452;28;20436;-79
2021/07/21 01:41:21;;;;;;;9.40;8.43;;;17.00;1.00;;;;;;5043959;28;20458;-80
2021/07/21 01:43:55;;;;;;;10.40;9.00;;;17.00;1.00;;;;;;4979286;28;20488;-81
2021/07/21 01:46:24;;;;;;;10.77;9.77;;;17.00;1.00;;;;;;4980966;28;20571;-78
2021/07/21 01:48:52;;;;;;;10.30;9.30;;;17.00;1.00;;;;;;4976769;28;20456;-79
2021/07/21 01:51:22;;;;;;;10.13;8.97;;;16.90;1.00;;;;;;4975776;28;20478;-79
2021/07/21 01:53:49;;;;;;;10.10;8.63;;;16.90;1.00;;;;;;4974004;28;20566;-79
2021/07/21 01:56:16;;;;;;;12.70;9.40;;;16.90;1.00;;;;;;4974242;28;21434;-79
2021/07/21 01:58:44;;;;;;;11.43;10.27;;;16.80;1.00;;;;;;4974386;28;20491;-80
2021/07/21 02:01:12;;;;;;;12.87;9.70;;;16.80;1.00;;;;;;5043869;28;20466;-79
2021/07/21 02:03:41;;;;;;;12.93;10.43;;;16.80;1.00;;;;;;4970629;28;20534;-81
2021/07/21 02:06:09;;;;;;;10.70;9.10;;;16.80;1.00;;;;;;4973623;28;20786;-82
2021/07/21 02:08:38;;;;;;;12.80;9.33;;;16.70;1.00;;;;;;4970199;28;23176;-80
2021/07/21 02:11:06;;;;;;;14.47;10.67;;;16.70;1.00;;;;;;4973839;28;20505;-81
2021/07/21 02:13:33;;;;;;;11.20;9.63;;;16.70;1.00;;;;;;4973909;28;20429;-80
2021/07/21 02:16:02;;;;;;;10.73;9.73;;;16.60;1.00;;;;;;4972999;28;20469;-81
2021/07/21 02:18:30;;;;;;;10.73;9.73;;;16.70;1.00;;;;;;4972100;28;20442;-80
2021/07/21 02:21:02;;;;;;;11.60;9.90;;;16.70;1.00;;;;;;4971730;28;20479;-80
2021/07/21 02:23:30;;;;;;;11.20;9.37;;;16.60;1.00;;;;;;4973411;28;21267;-81
2021/07/21 02:25:59;;;;;;;13.10;10.63;;;16.70;1.00;;;;;;4972998;28;20464;-79
2021/07/21 02:28:26;;;;;;;12.10;10.20;;;16.70;1.00;;;;;;5035409;28;20462;-79
2021/07/21 02:30:56;;;;;;;12.30;9.80;;;16.70;1.00;;;;;;5039302;28;20545;-79
2021/07/21 02:33:26;;;;;;;12.70;10.70;;;16.80;1.00;;;;;;4973946;28;20497;-81
2021/07/21 02:35:54;;;;;;;11.60;9.67;;;16.80;1.00;;;;;;4976425;28;20486;-80
2021/07/21 02:38:21;;;;;;;11.80;9.80;;;16.90;1.00;;;;;;4976166;28;20488;-80
2021/07/21 02:40:48;;;;;;;11.97;9.97;;;16.90;1.00;;;;;;4978837;28;20423;-80
2021/07/21 02:43:15;;;;;;;12.13;10.83;;;16.90;1.00;;;;;;4976029;28;20438;-80
2021/07/21 02:45:42;;;;;;;11.37;10.20;;;17.00;1.00;;;;;;4974428;28;20639;-81
2021/07/21 02:48:09;;;;;;;11.03;9.80;;;17.00;1.00;;;;;;5047401;28;20445;-80
2021/07/21 02:50:38;;;;;;;14.93;10.50;;;17.00;1.00;;;;;;4972507;28;20501;-80
2021/07/21 02:53:11;;;;;;;10.60;9.60;;;17.10;1.00;;;;;;5054441;28;20412;-81
2021/07/21 02:55:44;;;;;;;11.00;9.83;;;17.10;1.00;;;;;;4973516;28;20933;-81
2021/07/21 02:58:21;;;;;;;15.23;11.40;;;17.20;1.00;;;;;;4977099;28;20442;-79
2021/07/21 03:00:48;;;;;;;11.10;9.80;;;17.30;1.00;;;;;;4982774;28;20436;-79
2021/07/21 03:03:19;;;;;;;12.80;10.17;;;17.40;1.00;;;;;;5044849;28;21303;-79
2021/07/21 03:05:48;;;;;;;11.30;10.03;;;17.40;1.00;;;;;;4970968;28;21047;-78
2021/07/21 03:08:19;;;;;;;11.40;10.23;;;17.50;1.00;;;;;;4979885;28;20462;-81
2021/07/21 03:10:47;;;;;;;11.60;9.80;;;17.60;1.00;;;;;;5000292;28;20478;-79
2021/07/21 03:13:17;;;;;;;11.73;10.50;;;17.60;1.00;;;;;;5007622;27;20426;-79
2021/07/21 03:15:47;;;;;;;12.37;10.20;;;17.60;1.00;;;;;;5001442;28;20456;-78
2021/07/21 03:18:18;;;;;;;11.37;9.97;;;17.60;1.00;;;;;;4994374;28;21074;-77
2021/07/21 03:20:48;;;;;;;11.17;8.93;;;17.60;1.00;;;;;;4999465;27;20475;-78
2021/07/21 03:23:19;;;;;;;10.60;9.10;;;17.60;1.00;;;;;;5063764;27;20452;-79
2021/07/21 03:25:49;;;;;;;11.23;10.13;;;17.70;1.00;;;;;;4996327;28;20550;-78
2021/07/21 03:28:16;;;;;;;10.73;9.53;;;17.80;1.00;;;;;;4998523;28;20413;-80
2021/07/21 03:30:43;;;;;;;9.77;8.87;;;17.90;1.00;;;;;;4998801;28;20495;-79
2021/07/21 03:33:12;;;;;;;11.40;9.30;;;18.00;1.00;;;;;;4984006;28;20440;-80
2021/07/21 03:35:39;;;;;;;11.40;10.20;;;17.90;1.00;;;;;;4981755;28;20458;-79
2021/07/21 03:38:07;;;;;;;12.47;11.27;;;17.90;1.00;;;;;;4975520;28;20471;-80
2021/07/21 03:40:36;;;;;;;12.77;10.50;;;17.90;1.00;;;;;;4979765;28;20535;-80
2021/07/21 03:43:03;;;;;;;11.60;10.40;;;17.90;1.00;;;;;;4975033;28;20443;-81
2021/07/21 03:45:31;;;;;;;12.60;11.27;;;17.90;1.00;;;;;;5043585;28;20504;-81
2021/07/21 03:47:58;;;;;;;16.70;12.17;;;18.00;1.00;;;;;;4983356;28;20435;-81
2021/07/21 03:50:26;;;;;;;11.63;10.43;;;18.10;1.00;;;;;;4980253;28;20459;-81
2021/07/21 03:52:54;;;;;;;11.80;10.07;;;18.20;1.00;;;;;;4974687;28;24101;-83
2021/07/21 03:55:23;;;;;;;11.13;9.90;;;18.30;1.00;;;;;;4977170;28;21815;-81
2021/07/21 03:57:51;;;;;;;11.73;10.43;;;18.20;1.00;;;;;;4973326;28;20432;-81
2021/07/21 04:00:21;;;;;;;14.73;11.13;;;18.30;1.00;;;;;;5039825;28;20470;-79
2021/07/21 04:02:54;;;;;;;11.73;10.47;;;18.20;1.00;;;;;;4976027;28;20511;-82
2021/07/21 04:05:23;;;;;;;12.40;11.20;;;18.20;1.00;;;;;;4975739;28;20545;-80
2021/07/21 04:07:51;;;;;;;12.00;10.20;;;18.20;1.00;;;;;;4973883;28;20424;-81
2021/07/21 04:10:18;;;;;;;14.13;11.30;;;18.20;1.00;;;;;;4980980;28;20534;-80
2021/07/21 04:12:48;;;;;;;11.73;9.70;;;18.30;1.00;;;;;;4971618;28;20549;-80
2021/07/21 04:15:17;;;;;;;12.80;10.10;;;18.30;1.00;;;;;;5048414;28;20551;-79
2021/07/21 04:17:45;;;;;;;10.40;9.40;;;18.40;1.00;;;;;;4975276;28;20467;-82
2021/07/21 04:20:15;;;;;;;13.17;11.80;;;18.50;1.00;;;;;;4970747;28;21075;-82
2021/07/21 04:22:43;;;;;;;13.17;10.67;;;18.50;1.00;;;;;;4974510;28;20546;-81
2021/07/21 04:25:13;;;;;;;11.07;9.97;;;18.60;1.00;;;;;;4980817;28;20447;-80
2021/07/21 04:27:42;;;;;;;14.03;11.77;;;18.70;1.00;;;;;;4973595;28;21164;-81
2021/07/21 04:30:11;;;;;;;11.50;10.30;;;18.70;1.00;;;;;;4989541;28;20575;-81
2021/07/21 04:32:41;;;;;;;12.80;10.40;;;18.70;1.00;;;;;;4991233;28;20420;-80
2021/07/21 04:35:11;;;;;;;13.67;11.57;;;18.80;1.00;;;;;;4988224;28;21013;-81
2021/07/21 04:37:39;;;;;;;14.00;10.00;;;18.80;1.00;;;;;;5041963;28;20438;-79
2021/07/21 04:40:08;;;;;;;10.27;9.20;;;18.90;1.00;;;;;;5041121;28;20424;-79
2021/07/21 04:42:35;;;;;;;11.30;10.10;;;18.80;1.00;;;;;;4977800;28;20485;-80
2021/07/21 04:45:02;;;;;;;11.50;9.37;;;18.90;1.00;;;;;;4982890;28;20466;-78
2021/07/21 04:47:28;;;;;;;15.33;11.57;;;18.90;1.00;;;;;;4978314;28;20419;-77
2021/07/21 04:50:00;;;;;;;10.70;9.60;;;18.90;1.00;;;;;;4977939;28;21445;-78
2021/07/21 04:52:27;;;;;;;12.13;10.37;;;18.90;1.00;;;;;;5044488;28;20460;-77
2021/07/21 04:54:54;;;;;;;11.83;10.13;;;18.80;1.00;;;;;;4980880;28;20481;-77
2021/07/21 04:57:22;;;;;;;10.87;9.40;;;18.80;1.00;;;;;;4981331;28;20461;-79
2021/07/21 04:59:49;;;;;;;11.43;10.03;;;18.90;1.00;;;;;;4981110;28;20515;-81
2021/07/21 05:02:16;;;;;;;12.07;10.47;;;18.90;1.00;;;;;;4984150;28;20661;-80
2021/07/21 05:04:43;;;;;;;11.60;9.80;;;18.90;1.00;;;;;;4982230;28;20455;-79
2021/07/21 05:07:12;;;;;;;13.20;10.37;;;18.90;1.00;;;;;;4983024;28;20474;-80
2021/07/21 05:09:39;;;;;;;13.13;9.90;;;18.80;1.00;;;;;;5037844;28;20439;-72
2021/07/21 05:12:06;;;;;;;12.80;10.00;;;18.70;1.00;;;;;;4965165;28;20482;-75
2021/07/21 05:14:34;;;;;;;10.40;9.40;;;18.80;1.00;;;;;;4968508;28;20459;-73
2021/07/21 05:17:01;;;;;;;12.23;10.80;;;18.80;1.00;;;;;;4971627;28;20573;-72
2021/07/21 05:19:28;;;;;;;9.37;8.43;;;18.70;1.00;;;;;;4966827;28;20443;-75
2021/07/21 05:21:56;;;;;;;11.23;9.80;;;18.70;1.00;;;;;;4964678;28;20447;-76
2021/07/21 05:24:25;;;;;;;11.97;9.57;;;18.80;1.00;;;;;;4978938;28;21472;-71
2021/07/21 05:26:51;;;;;;;10.63;9.63;;;18.80;1.00;;;;;;4969018;28;20428;-71
2021/07/21 05:29:18;;;;;;;20.37;13.40;;;18.90;1.00;;;;;;4965110;28;20446;-70
2021/07/21 05:31:45;;;;;;;10.67;9.57;;;19.00;1.00;;;;;;4951761;28;20464;-71
2021/07/21 05:34:12;;;;;;;12.30;10.67;;;19.00;1.00;;;;;;4963963;28;20457;-71
2021/07/21 05:36:39;;;;;;;10.70;8.77;;;19.10;1.00;;;;;;4969952;28;21267;-71
2021/07/21 05:39:06;;;;;;;10.27;9.00;;;19.10;1.00;;;;;;4963871;28;20460;-70
2021/07/21 05:41:35;;;;;;;11.73;10.00;;;19.20;1.00;;;;;;4963267;28;21178;-71
2021/07/21 05:44:02;;;;;;;9.80;8.70;;;19.20;1.00;;;;;;4967512;28;20880;-71
2021/07/21 05:46:29;;;;;;;12.20;10.60;;;19.20;1.00;;;;;;4965334;28;20408;-71
2021/07/21 05:48:56;;;;;;;10.10;9.10;;;19.30;1.00;;;;;;4969301;28;20479;-71
2021/07/21 05:51:22;;;;;;;10.70;9.60;;;19.30;1.00;;;;;;4968087;28;20456;-72
2021/07/21 05:53:49;;;;;;;9.80;8.30;;;19.30;1.00;;;;;;4966000;28;20938;-72
2021/07/21 05:56:17;;;;;;;10.50;9.40;;;19.30;1.00;;;;;;4966718;28;23639;-72
2021/07/21 05:58:45;;;;;;;11.10;9.03;;;19.30;1.00;;;;;;4966816;28;20456;-71
2021/07/21 06:01:13;;;;;;;10.10;9.10;;;19.50;1.00;;;;;;4965262;28;20471;-73
2021/07/21 06:03:40;;;;;;;13.83;10.93;;;19.60;1.00;;;;;;4969897;28;20447;-72
2021/07/21 06:06:08;;;;;;;10.63;9.30;;;19.60;1.00;;;;;;4960351;28;20463;-71
2021/07/21 06:08:35;;;;;;;12.43;11.10;;;19.70;1.00;;;;;;4968404;28;20462;-73
2021/07/21 06:11:01;;;;;;;11.33;9.70;;;19.80;1.00;;;;;;4964881;28;20462;-72
2021/07/21 06:13:29;;;;;;;13.03;9.80;;;19.90;1.00;;;;;;4967323;28;20468;-73
2021/07/21 06:16:03;;;;;;;11.63;10.30;;;20.00;1.00;;;;;;4968940;28;20794;-73
2021/07/21 06:18:30;;;;;;;11.27;10.07;;;20.10;1.00;;;;;;4965779;28;20450;-72
2021/07/21 06:20:56;;;;;;;10.87;9.80;;;20.10;1.00;;;;;;4965828;28;20472;-73
2021/07/21 06:23:23;;;;;;;10.77;9.67;;;20.20;1.00;;;;;;4954983;28;20560;-74
2021/07/21 06:25:49;;;;;;;12.17;9.23;;;20.20;1.00;;;;;;4964096;28;21377;-73
2021/07/21 06:28:17;;;;;;;12.10;9.97;;;20.30;1.00;;;;;;4968387;28;20470;-73
2021/07/21 06:30:44;;;;;;;10.67;9.53;;;20.40;1.00;;;;;;4971177;28;20449;-71
2021/07/21 06:33:16;;;;;;;14.20;11.70;;;20.50;1.00;;;;;;4968347;28;20456;-75
2021/07/21 06:35:43;;;;;;;10.63;9.50;;;20.70;1.00;;;;;;4965716;28;20468;-73
2021/07/21 06:38:10;;;;;;;12.00;9.43;;;20.70;1.00;;;;;;4964984;28;20473;-74
2021/07/21 06:40:36;;;;;;;11.60;9.07;;;20.80;1.00;;;;;;4965480;28;20455;-75
2021/07/21 06:43:03;;;;;;;9.83;8.83;;;20.90;1.00;;;;;;4968142;28;20464;-75
2021/07/21 06:45:30;;;;;;;13.30;11.13;;;21.10;1.00;;;;;;4968870;28;20519;-75
2021/07/21 06:47:56;;;;;;;10.17;8.97;;;21.10;1.00;;;;;;4965947;28;20453;-73
2021/07/21 06:50:26;;;;;;;14.33;9.03;;;21.20;1.00;;;;;;4965416;28;20516;-73
2021/07/21 06:52:53;;;;;;;10.03;8.70;;;21.30;1.00;;;;;;4968562;28;20468;-75
2021/07/21 06:55:20;;;;;;;12.10;10.50;;;21.40;1.00;;;;;;4964372;28;20536;-73
2021/07/21 06:57:46;;;;;;;8.83;7.50;;;21.40;1.00;;;;;;5024519;28;20468;-75
2021/07/21 07:00:14;;;;;;;8.83;7.93;;;21.50;1.00;;;;;;4967597;28;20470;-75
2021/07/21 07:02:40;;;;;;;8.00;7.30;;;21.60;1.00;;;;;;4968160;28;20461;-72
2021/07/21 07:05:08;;;;;;;8.73;7.33;;;21.70;1.00;;;;;;4969043;28;20461;-73
2021/07/21 07:07:36;;;;;;;9.40;8.20;;;21.80;1.00;;;;;;5018028;28;20461;-72
2021/07/21 07:10:04;;;;;;;11.83;8.20;;;21.80;1.00;;;;;;4968936;28;20571;-72
2021/07/21 07:12:30;;;;;;;8.03;7.23;;;21.90;1.00;;;;;;4967926;28;21292;-76
2021/07/21 07:14:57;;;;;;;10.87;7.50;;;22.00;1.00;;;;;;4966492;28;20458;-75
2021/07/21 07:17:25;;;;;;;7.50;6.63;;;22.10;1.00;;;;;;4966225;28;20503;-75
2021/07/21 07:19:52;;;;;;;8.30;6.80;;;22.10;1.00;;;;;;4958380;28;20558;-72
2021/07/21 07:22:19;;;;;;;7.47;6.67;;;22.30;1.00;;;;;;4966104;28;20492;-76
2021/07/21 07:24:47;;;;;;;7.73;6.93;;;22.40;1.00;;;;;;4967733;28;20879;-73
2021/07/21 07:27:14;;;;;;;7.40;6.60;;;22.40;1.00;;;;;;4964868;28;20470;-73
2021/07/21 07:29:40;;;;;;;7.83;6.97;;;22.40;1.00;;;;;;4971690;28;20470;-74
2021/07/21 07:32:08;;;;;;;8.27;6.80;;;22.40;1.00;;;;;;4971372;28;20419;-73
2021/07/21 07:34:35;;;;;;;7.37;6.53;;;22.50;1.00;;;;;;4967858;28;20439;-76
2021/07/21 07:37:02;;;;;;;6.60;5.90;;;22.50;1.00;;;;;;4972497;28;20460;-74
2021/07/21 07:39:28;;;;;;;9.73;6.97;;;22.40;1.00;;;;;;4979280;28;20421;-71
2021/07/21 07:41:59;;;;;;;7.53;6.83;;;22.30;1.00;;;;;;4969915;28;20459;-73
2021/07/21 07:44:27;;;;;;;8.13;7.43;;;22.30;1.00;;;;;;4976764;28;20502;-73
2021/07/21 07:46:53;;;;;;;6.80;6.10;;;22.30;1.00;;;;;;4977667;28;20464;-72
2021/07/21 07:49:20;;;;;;;40.93;15.50;;;22.40;1.00;;;;;;4979165;28;20464;-74
2021/07/21 07:51:47;;;;;;;9.77;7.17;;;22.70;1.00;;;;;;4968184;28;20474;-74
2021/07/21 07:54:15;;;;;;;7.90;6.17;;;23.00;1.00;;;;;;4968714;28;20451;-75
2021/07/21 07:56:43;;;;;;;7.13;5.90;;;23.20;1.00;;;;;;4965856;28;20473;-75
2021/07/21 07:59:11;;;;;;;5.47;4.53;;;23.30;1.00;;;;;;4963336;28;22115;-75
2021/07/21 08:01:38;;;;;;;5.50;4.77;;;23.30;1.00;;;;;;4964000;28;20479;-75
2021/07/21 08:04:04;;;;;;;5.73;4.73;;;23.10;1.00;;;;;;4965536;28;21850;-74
2021/07/21 08:06:31;;;;;;;5.43;4.90;;;23.00;1.00;;;;;;4966731;28;20475;-73
2021/07/21 08:08:58;;;;;;;7.20;6.13;;;22.90;1.00;;;;;;4966560;28;20508;-76
2021/07/21 08:11:25;;;;;;;7.37;5.30;;;23.00;1.00;;;;;;4962240;28;21181;-76
2021/07/21 08:13:51;;;;;;;8.33;7.07;;;23.20;1.00;;;;;;4968514;28;20458;-74
2021/07/21 08:16:19;;;;;;;9.30;8.00;;;23.60;1.00;;;;;;4966018;28;20471;-75
2021/07/21 08:18:46;;;;;;;9.60;6.97;;;23.90;1.00;;;;;;4967597;28;20563;-75
2021/07/21 08:21:13;;;;;;;11.50;7.47;;;23.90;1.00;;;;;;5027662;28;20507;-74
2021/07/21 08:23:40;;;;;;;7.70;6.83;;;23.90;1.00;;;;;;4972098;28;20449;-74
2021/07/21 08:26:07;;;;;;;11.30;8.40;;;24.00;1.00;;;;;;4967152;28;20521;-75
2021/07/21 08:28:35;;;;;;;8.30;7.50;;;24.00;1.00;;;;;;4966430;28;20452;-75
2021/07/21 08:31:03;;;;;;;9.30;8.40;;;24.10;1.00;;;;;;5024035;28;20556;-74
2021/07/21 08:33:31;;;;;;;7.63;6.53;;;24.00;1.00;;;;;;4966803;28;20456;-74
2021/07/21 08:35:57;;;;;;;7.10;6.20;;;24.00;1.00;;;;;;4972115;28;21410;-75
2021/07/21 08:38:24;;;;;;;7.43;6.17;;;24.10;1.00;;;;;;4977201;28;20413;-75
2021/07/21 08:40:53;;;;;;;10.67;7.13;;;24.10;1.00;;;;;;4973671;28;20454;-75
2021/07/21 08:43:21;;;;;;;8.63;7.37;;;24.20;1.00;;;;;;4974044;28;20421;-73
2021/07/21 08:45:48;;;;;;;8.03;6.33;;;24.30;1.00;;;;;;4974708;28;20453;-74
2021/07/21 08:48:15;;;;;;;7.97;5.97;;;24.20;1.00;;;;;;4973129;28;20521;-76
2021/07/21 08:50:45;;;;;;;6.40;5.80;;;24.10;1.00;;;;;;4975493;28;20539;-72
2021/07/21 08:53:14;;;;;;;9.50;6.50;;;24.10;1.00;;;;;;4977244;28;20452;-74
2021/07/21 08:55:40;;;;;;;7.83;6.03;;;24.00;1.00;;;;;;4984502;28;20442;-73
2021/07/21 08:58:07;;;;;;;7.60;6.80;;;23.80;1.00;;;;;;5001961;28;20571;-75
2021/07/21 09:00:35;;;;;;;9.50;5.90;;;23.70;1.00;;;;;;5057914;28;20496;-72
2021/07/21 09:03:03;;;;;;;6.83;6.13;;;23.70;1.00;;;;;;4996881;28;20436;-73
2021/07/21 09:05:30;;;;;;;5.77;5.00;;;23.60;1.00;;;;;;5001589;28;20494;-75
2021/07/21 09:07:58;;;;;;;5.83;5.33;;;23.50;1.00;;;;;;4998549;28;20448;-72
2021/07/21 09:10:25;;;;;;;7.37;5.63;;;23.50;1.00;;;;;;4969541;28;20960;-71
2021/07/21 09:12:52;;;;;;;6.97;6.27;;;23.60;1.00;;;;;;4982170;28;20402;-72
2021/07/21 09:15:21;;;;;;;9.97;6.30;;;23.70;1.00;;;;;;4996274;28;20436;-74
2021/07/21 09:18:05;;;;;;;8.57;6.80;;;23.80;1.00;;;;;;4997531;28;20438;-74
2021/07/21 09:20:34;;;;;;;9.10;6.90;;;23.80;1.00;;;;;;5005650;28;20414;-74
2021/07/21 09:23:03;;;;;;;6.10;5.50;;;23.60;1.00;;;;;;4999481;28;20401;-74
2021/07/21 09:25:31;;;;;;;6.57;5.93;;;23.40;1.00;;;;;;5001642;28;20602;-73
2021/07/21 09:27:59;;;;;;;6.47;5.80;;;23.20;1.00;;;;;;4997090;28;20380;-74
2021/07/21 09:30:28;;;;;;;6.87;5.60;;;23.10;1.00;;;;;;4989603;28;20502;-75
2021/07/21 09:33:01;;;;;;;5.37;4.87;;;22.90;1.00;;;;;;5048185;28;20416;-74
2021/07/21 09:35:30;;;;;;;5.23;4.73;;;22.90;1.00;;;;;;5034284;28;20457;-78
2021/07/21 09:37:58;;;;;;;5.97;5.20;;;23.00;1.00;;;;;;4983075;28;20412;-74
2021/07/21 09:40:27;;;;;;;7.67;5.27;;;23.30;1.00;;;;;;4967349;28;20470;-77
2021/07/21 09:42:54;;;;;;;7.20;6.07;;;23.40;1.00;;;;;;4969303;28;20471;-76
2021/07/21 09:45:21;;;;;;;6.20;4.93;;;23.50;1.00;;;;;;4975160;28;21356;-76
2021/07/21 09:47:56;;;;;;;5.50;5.00;;;23.90;1.00;;;;;;4969296;28;20450;-77
2021/07/21 09:50:26;;;;;;;6.57;4.80;;;24.30;1.00;;;;;;5028162;28;20478;-76
2021/07/21 09:52:55;;;;;;;7.80;5.47;;;24.70;1.00;;;;;;4969320;28;21154;-75
2021/07/21 09:55:23;;;;;;;3.93;3.20;;;24.90;1.00;;;;;;4968112;28;20463;-78
2021/07/21 09:58:04;;;;;;;4.23;3.03;;;25.10;1.00;;;;;;4973048;28;20561;-76
2021/07/21 10:00:32;;;;;;;3.87;3.30;;;25.20;1.00;;;;;;4969071;28;21009;-77
2021/07/21 10:03:13;;;;;;;5.97;3.33;;;25.50;1.00;;;;;;4970295;28;20475;-75
2021/07/21 10:06:05;;;;;;;6.43;4.00;;;25.90;1.00;;;;;;4972999;28;20487;-76
2021/07/21 10:08:41;;;;;;;3.93;3.10;;;26.00;1.00;;;;;;4976815;28;20555;-76
2021/07/21 10:11:27;;;;;;;3.80;3.50;;;25.90;1.00;;;;;;4972945;28;20508;-77
2021/07/21 10:14:08;;;;;;;6.13;4.40;;;25.90;1.00;;;;;;4972621;28;20433;-75
2021/07/21 10:16:40;;;;;;;4.03;3.60;;;26.00;1.00;;;;;;4968474;28;20482;-75
2021/07/21 10:19:10;;;;;;;4.70;4.30;;;26.10;1.00;;;;;;4964258;28;20466;-78
2021/07/21 10:21:38;;;;;;;4.77;4.37;;;26.00;1.00;;;;;;5046149;28;20477;-76
2021/07/21 10:24:06;;;;;;;5.17;4.13;;;25.90;1.00;;;;;;4965846;28;20445;-76
2021/07/21 10:26:33;;;;;;;4.30;3.90;;;25.80;1.00;;;;;;4972696;28;20492;-74
2021/07/21 10:29:01;;;;;;;5.67;4.27;;;25.50;1.00;;;;;;4970488;28;20523;-77
2021/07/21 10:31:29;;;;;;;5.47;4.50;;;25.30;1.00;;;;;;4970292;28;20480;-76
2021/07/21 10:33:56;;;;;;;4.37;3.97;;;25.30;1.00;;;;;;5028587;28;20457;-75
2021/07/21 10:36:24;;;;;;;4.77;3.77;;;25.30;1.00;;;;;;4963519;28;20552;-74
2021/07/21 10:38:51;;;;;;;5.23;4.27;;;25.20;1.00;;;;;;4968583;28;20467;-75
2021/07/21 10:41:19;;;;;;;4.50;4.07;;;25.00;1.00;;;;;;4972904;28;20557;-76
2021/07/21 10:43:47;;;;;;;4.60;3.70;;;24.90;1.00;;;;;;4970169;28;20453;-74
2021/07/21 10:46:35;;;;;;;4.40;4.00;;;24.70;1.00;;;;;;4968229;28;20438;-77
2021/07/21 10:49:19;;;;;;;5.70;4.00;;;24.60;1.00;;;;;;5021356;28;20538;-74
2021/07/21 10:54:48;;;;;;;4.90;3.37;;;24.60;1.00;;;;;;4968397;28;20591;-76
2021/07/21 11:00:10;;;;;;;5.70;5.07;;;25.90;1.00;;;;;;4967850;28;20466;-76
2021/07/21 11:02:40;;;;;;;4.03;3.50;;;27.30;1.00;;;;;;4967272;28;20462;-75
2021/07/21 11:05:09;;;;;;;6.77;4.13;;;27.80;1.00;;;;;;4968003;28;20452;-77
2021/07/21 11:07:53;;;;;;;4.10;3.70;;;27.70;1.00;;;;;;4968298;28;21056;-76
2021/07/21 11:10:33;;;;;;;8.40;7.53;;;27.40;1.00;;;;;;4964759;28;22588;-76
2021/07/21 11:13:01;;;;;;;5.30;3.40;;;27.00;1.00;;;;;;4980317;28;20430;-73
2021/07/21 11:15:35;;;;;;;5.00;3.93;;;26.80;1.00;;;;;;4979760;28;20486;-75
2021/07/21 11:18:51;;;;;;;4.93;2.70;;;26.90;1.00;;;;;;4974689;28;20454;-75
2021/07/21 11:21:21;;;;;;;3.40;3.10;;;27.20;1.00;;;;;;4971127;28;21449;-75
2021/07/21 11:24:04;;;;;;;4.47;3.60;;;27.60;1.00;;;;;;4967082;28;21408;-73
2021/07/21 11:26:46;;;;;;;3.50;3.10;;;28.00;1.00;;;;;;4961393;28;21306;-73
2021/07/21 11:29:44;;;;;;;4.33;3.90;;;27.90;1.00;;;;;;5022743;28;20475;-71
2021/07/21 11:32:25;;;;;;;4.10;3.70;;;29.10;1.00;;;;;;4963810;28;20447;-75
2021/07/21 11:34:52;;;;;;;4.13;3.70;;;30.30;1.00;;;;;;4964396;28;20474;-72
2021/07/21 11:37:28;;;;;;;3.97;3.57;;;30.20;1.00;;;;;;4961681;28;20442;-74
2021/07/21 11:39:56;;;;;;;5.37;3.13;;;30.00;1.00;;;;;;4963601;28;20527;-73
2021/07/21 11:42:33;;;;;;;3.30;3.00;;;30.00;1.00;;;;;;4972318;28;20429;-73
2021/07/21 11:45:19;;;;;;;4.27;3.30;;;29.90;1.00;;;;;;4964283;28;20473;-74
2021/07/21 11:47:56;;;;;;;3.93;3.63;;;29.60;1.00;;;;;;4965856;28;20509;-74
2021/07/21 11:50:25;;;;;;;4.60;3.10;;;29.00;1.00;;;;;;5035483;28;20786;-74
2021/07/21 11:52:55;;;;;;;4.30;3.20;;;28.10;1.00;;;;;;4964106;28;21299;-74
2021/07/21 11:55:24;;;;;;;6.30;3.27;;;27.40;1.00;;;;;;4963420;28;20453;-73
2021/07/21 11:57:51;;;;;;;4.10;3.30;;;26.60;1.00;;;;;;4965418;28;20458;-73
2021/07/21 12:00:20;;;;;;;5.10;3.93;;;26.30;1.00;;;;;;4965011;28;20580;-75
2021/07/21 12:02:46;;;;;;;5.30;4.30;;;26.20;1.00;;;;;;4962708;28;20471;-74
2021/07/21 12:05:14;;;;;;;5.57;4.17;;;26.10;1.00;;;;;;4967408;28;20535;-75
2021/07/21 12:07:42;;;;;;;5.60;4.40;;;26.00;1.00;;;;;;4968761;28;20873;-75
2021/07/21 12:10:14;;;;;;;3.37;2.87;;;25.80;1.00;;;;;;4970957;28;20962;-73
2021/07/21 12:12:41;;;;;;;4.07;3.60;;;25.50;1.00;;;;;;4974355;28;20487;-74
2021/07/21 12:15:10;;;;;;;4.67;3.50;;;25.20;1.00;;;;;;4968466;28;20460;-75
2021/07/21 12:17:37;;;;;;;6.30;4.07;;;24.90;1.00;;;;;;4967715;28;20883;-74
2021/07/21 12:20:07;;;;;;;4.60;3.90;;;24.70;1.00;;;;;;4975155;28;20496;-73
2021/07/21 12:22:35;;;;;;;3.77;3.40;;;24.70;1.00;;;;;;4970215;28;20462;-73
2021/07/21 12:25:04;;;;;;;3.93;3.50;;;24.70;1.00;;;;;;4958696;28;25761;-71
2021/07/21 12:27:34;;;;;;;3.90;3.17;;;24.60;1.00;;;;;;4955845;28;20460;-73
2021/07/21 12:30:04;;;;;;;5.10;3.83;;;24.60;1.00;;;;;;4967699;28;21250;-73
2021/07/21 12:32:30;;;;;;;5.40;3.10;;;24.60;1.00;;;;;;4964922;28;20459;-73
2021/07/21 12:34:57;;;;;;;4.47;3.50;;;24.50;1.00;;;;;;4962156;28;20461;-72
2021/07/21 12:37:26;;;;;;;4.53;4.10;;;24.60;1.00;;;;;;4964339;28;20470;-73
2021/07/21 12:39:54;;;;;;;5.20;3.50;;;24.70;1.00;;;;;;4957925;28;20459;-72
2021/07/21 12:42:22;;;;;;;6.70;4.03;;;24.70;1.00;;;;;;4962514;28;20473;-70
2021/07/21 12:44:52;;;;;;;5.13;3.77;;;24.70;1.00;;;;;;4963171;28;20467;-71
2021/07/21 12:47:20;;;;;;;3.97;3.10;;;24.70;1.00;;;;;;4961243;28;20542;-70
2021/07/21 12:49:49;;;;;;;4.10;3.47;;;24.80;1.00;;;;;;4962542;28;20905;-72
2021/07/21 12:52:20;;;;;;;5.20;3.20;;;24.70;1.00;;;;;;4959255;28;21003;-72
2021/07/21 12:54:48;;;;;;;4.93;3.47;;;24.70;1.00;;;;;;4962300;28;20445;-72
2021/07/21 12:57:15;;;;;;;4.90;3.50;;;24.70;1.00;;;;;;4957753;28;20530;-73
2021/07/21 12:59:42;;;;;;;4.20;3.77;;;24.80;1.00;;;;;;4965552;28;20455;-71
2021/07/21 13:02:15;;;;;;;3.50;3.20;;;24.80;1.00;;;;;;4964221;28;20880;-73
2021/07/21 13:04:43;;;;;;;4.93;3.73;;;24.90;1.00;;;;;;4967840;28;20451;-72
2021/07/21 13:07:10;;;;;;;3.63;3.33;;;25.10;1.00;;;;;;4962217;28;22469;-72